Apellis — 3FJT2 — position and weather

sailwx.info

Track history (hours):
 
Tides and Currents Weather Stations Pressure Air Temp Water Temp Dewpoint Dewpoint Depression Visibility Wind Speed Wind Dir Waves Ship Positions

Apellis

Last reported at 2015-May-15 18:03 UTC. Time now 2015-May-24 17:17 UTC.
Position N 46°17' E 030°44'.
Warning: this ship's position is 8 days out of date.

Length 178 m; draft 5.9 m.

Type: Cargo ship. MMSI: 353847000.

Date/timePositionNaut miles runAvg speedWind from/ knotsBaromVisibWave heightAir tempDewpointWater temp
2015-May-15 18:03N 46°17' E 030°44'188 6.8
2015-May-14 14:30N 44°04' E 033°52'1314.3
2015-May-14 13:34N 44°04' E 034°11'1414.2
2015-May-14 12:34N 44°04' E 034°31'1414.0
2015-May-14 11:34N 44°05' E 034°50'1413.9
2015-May-14 10:33N 44°04' E 035°09'1414.0
2015-May-14 09:33N 44°04' E 035°29'1414.1
2015-May-14 08:33N 44°04' E 035°49'1413.8
2015-May-14 07:34N 44°06' E 036°07'1413.9
2015-May-14 06:33N 44°11' E 036°26'1313.4
2015-May-14 05:33N 44°15' E 036°43'1313.1
2015-May-14 04:33N 44°20' E 037°01'1313.3
2015-May-14 03:33N 44°24' E 037°18'1413.3
2015-May-14 02:32N 44°29' E 037°36'1212.7
2015-May-14 01:33N 44°32' E 037°53'3 3.1
2015-May-14 00:31N 44°34' E 037°57'0 0.0
2015-May-13 23:31N 44°34' E 037°57'0 0.0
2015-May-13 22:31N 44°34' E 037°57'0 0.1
2015-May-13 21:31N 44°34' E 037°57'0 0.0
2015-May-13 20:31N 44°34' E 037°57'0 0.0
2015-May-13 19:32N 44°34' E 037°57'0 0.0
2015-May-13 18:31N 44°34' E 037°57'0 0.1
2015-May-13 17:28N 44°34' E 037°57'0 0.1
2015-May-13 16:28N 44°34' E 037°57'0 0.0
2015-May-13 15:31N 44°34' E 037°57'0 0.0
2015-May-13 14:31N 44°34' E 037°57'0 0.0
2015-May-13 13:31N 44°34' E 037°57'0 0.0
2015-May-13 12:31N 44°34' E 037°57'0 0.0
2015-May-13 11:31N 44°34' E 037°57'0 0.0
2015-May-13 10:31N 44°34' E 037°57'0 0.0
2015-May-13 09:31N 44°34' E 037°57'0 0.0
2015-May-13 08:31N 44°34' E 037°57'0 0.0
2015-May-13 07:31N 44°34' E 037°57'0 0.0
2015-May-13 06:31N 44°34' E 037°57'0 0.0
2015-May-13 05:31N 44°34' E 037°57'0 0.1
2015-May-13 04:31N 44°34' E 037°57'0 0.0
2015-May-13 03:31N 44°34' E 037°57'0 0.0
2015-May-13 02:31N 44°34' E 037°57'0 0.0
2015-May-13 01:31N 44°34' E 037°57'0 0.0
2015-May-13 00:31N 44°34' E 037°57'0 0.0
2015-May-12 23:31N 44°34' E 037°57'0 0.0
2015-May-12 22:31N 44°34' E 037°57'0 0.0
2015-May-12 21:31N 44°34' E 037°57'0 0.0
2015-May-12 20:31N 44°34' E 037°57'0 0.0
2015-May-12 19:31N 44°34' E 037°57'0 0.0
2015-May-12 18:31N 44°34' E 037°57'0 0.0
2015-May-12 17:31N 44°34' E 037°57'0 0.0
2015-May-12 16:31N 44°34' E 037°57'0 0.0
2015-May-12 15:31N 44°34' E 037°57'0 0.0
2015-May-12 14:31N 44°34' E 037°57'0 0.0
2015-May-12 13:31N 44°34' E 037°57'0 0.0
2015-May-12 12:31N 44°34' E 037°57'0 0.0
2015-May-12 11:31N 44°34' E 037°57'0 0.0
2015-May-12 10:31N 44°34' E 037°57'0 0.0
2015-May-12 09:31N 44°34' E 037°57'0 0.0
2015-May-12 08:31N 44°34' E 037°57'0 0.0
2015-May-12 07:31N 44°34' E 037°57'0 0.0
2015-May-12 06:31N 44°34' E 037°57'0 0.1
2015-May-12 05:31N 44°34' E 037°57'3 3.5
2015-May-12 04:33N 44°32' E 037°52'1211.5
2015-May-12 03:33N 44°27' E 037°38'1313.2
2015-May-12 02:33N 44°22' E 037°21'11813.1
2015-May-11 17:33N 43°28' E 034°55'28013.2
2015-May-10 20:26N 41°21' E 029°18'300 6.4
2015-May-08 21:28N 37°53' E 024°37'251 9.0
2015-May-07 17:26N 35°50' E 020°04'71 9.9
2015-May-07 10:16N 35°34' E 018°39'2810.4
2015-May-07 07:33N 35°28' E 018°05'1110.7
2015-May-07 06:31N 35°25' E 017°52'1010.8
2015-May-07 05:33N 35°23' E 017°39'1110.7
2015-May-07 04:33N 35°21' E 017°26'2510.5
2015-May-07 02:12N 35°15' E 016°57'2810.6
2015-May-06 23:33N 35°09' E 016°23'12 9.9
2015-May-06 22:19N 35°06' E 016°09'7 9.5
2015-May-06 21:33N 35°04' E 016°00'19 9.8
2015-May-06 19:33N 34°60' E 015°37'1010.3
2015-May-06 18:33N 34°58' E 015°25'1010.5
2015-May-06 17:33N 34°56' E 015°12'1110.5
2015-May-06 16:33N 34°53' E 014°60'1010.5
2015-May-06 15:33N 34°51' E 014°47'1010.2
2015-May-06 14:33N 34°48' E 014°35'1010.0
2015-May-06 13:32N 34°46' E 014°23'1010.0
2015-May-06 12:33N 34°44' E 014°12'10 9.9
2015-May-06 11:33N 34°41' E 013°60'10 9.8
2015-May-06 10:33N 34°39' E 013°48'12 9.8
2015-May-06 09:23N 34°37' E 013°35'810.1
2015-May-06 08:34N 34°35' E 013°25'1010.0
2015-May-06 07:32N 34°33' E 013°13'3210.2
2015-May-06 04:22N 34°26' E 012°34'810.2
2015-May-06 03:32N 34°23' E 012°25'  
Track history (hours):
 
Tides and Currents Weather Stations Pressure Air Temp Water Temp Dewpoint Dewpoint Depression Visibility Wind Speed Wind Dir Waves Ship Positions

Apellis

Last reported at 2015-May-15 18:03 UTC. Time now 2015-May-24 17:17 UTC.
Position N 46°17' E 030°44'.
Warning: this ship's position is 8 days out of date.

Length 178 m; draft 5.9 m.

Type: Cargo ship. MMSI: 353847000.

Date/timePositionNaut miles runAvg speedWind from/ knotsBaromVisibWave heightAir tempDewpointWater temp
2015-May-15 18:03N 46°17' E 030°44'188 6.8
2015-May-14 14:30N 44°04' E 033°52'1314.3
2015-May-14 13:34N 44°04' E 034°11'1414.2
2015-May-14 12:34N 44°04' E 034°31'1414.0
2015-May-14 11:34N 44°05' E 034°50'1413.9
2015-May-14 10:33N 44°04' E 035°09'1414.0
2015-May-14 09:33N 44°04' E 035°29'1414.1
2015-May-14 08:33N 44°04' E 035°49'1413.8
2015-May-14 07:34N 44°06' E 036°07'1413.9
2015-May-14 06:33N 44°11' E 036°26'1313.4
2015-May-14 05:33N 44°15' E 036°43'1313.1
2015-May-14 04:33N 44°20' E 037°01'1313.3
2015-May-14 03:33N 44°24' E 037°18'1413.3
2015-May-14 02:32N 44°29' E 037°36'1212.7
2015-May-14 01:33N 44°32' E 037°53'3 3.1
2015-May-14 00:31N 44°34' E 037°57'0 0.0
2015-May-13 23:31N 44°34' E 037°57'0 0.0
2015-May-13 22:31N 44°34' E 037°57'0 0.1
2015-May-13 21:31N 44°34' E 037°57'0 0.0
2015-May-13 20:31N 44°34' E 037°57'0 0.0
2015-May-13 19:32N 44°34' E 037°57'0 0.0
2015-May-13 18:31N 44°34' E 037°57'0 0.1
2015-May-13 17:28N 44°34' E 037°57'0 0.1
2015-May-13 16:28N 44°34' E 037°57'0 0.0
2015-May-13 15:31N 44°34' E 037°57'0 0.0
2015-May-13 14:31N 44°34' E 037°57'0 0.0
2015-May-13 13:31N 44°34' E 037°57'0 0.0
2015-May-13 12:31N 44°34' E 037°57'0 0.0
2015-May-13 11:31N 44°34' E 037°57'0 0.0
2015-May-13 10:31N 44°34' E 037°57'0 0.0
2015-May-13 09:31N 44°34' E 037°57'0 0.0
2015-May-13 08:31N 44°34' E 037°57'0 0.0
2015-May-13 07:31N 44°34' E 037°57'0 0.0
2015-May-13 06:31N 44°34' E 037°57'0 0.0
2015-May-13 05:31N 44°34' E 037°57'0 0.1
2015-May-13 04:31N 44°34' E 037°57'0 0.0
2015-May-13 03:31N 44°34' E 037°57'0 0.0
2015-May-13 02:31N 44°34' E 037°57'0 0.0
2015-May-13 01:31N 44°34' E 037°57'0 0.0
2015-May-13 00:31N 44°34' E 037°57'0 0.0
2015-May-12 23:31N 44°34' E 037°57'0 0.0
2015-May-12 22:31N 44°34' E 037°57'0 0.0
2015-May-12 21:31N 44°34' E 037°57'0 0.0
2015-May-12 20:31N 44°34' E 037°57'0 0.0
2015-May-12 19:31N 44°34' E 037°57'0 0.0
2015-May-12 18:31N 44°34' E 037°57'0 0.0
2015-May-12 17:31N 44°34' E 037°57'0 0.0
2015-May-12 16:31N 44°34' E 037°57'0 0.0
2015-May-12 15:31N 44°34' E 037°57'0 0.0
2015-May-12 14:31N 44°34' E 037°57'0 0.0
2015-May-12 13:31N 44°34' E 037°57'0 0.0
2015-May-12 12:31N 44°34' E 037°57'0 0.0
2015-May-12 11:31N 44°34' E 037°57'0 0.0
2015-May-12 10:31N 44°34' E 037°57'0 0.0
2015-May-12 09:31N 44°34' E 037°57'0 0.0
2015-May-12 08:31N 44°34' E 037°57'0 0.0
2015-May-12 07:31N 44°34' E 037°57'0 0.0
2015-May-12 06:31N 44°34' E 037°57'0 0.1
2015-May-12 05:31N 44°34' E 037°57'3 3.5
2015-May-12 04:33N 44°32' E 037°52'1211.5
2015-May-12 03:33N 44°27' E 037°38'1313.2
2015-May-12 02:33N 44°22' E 037°21'11813.1
2015-May-11 17:33N 43°28' E 034°55'28013.2
2015-May-10 20:26N 41°21' E 029°18'300 6.4
2015-May-08 21:28N 37°53' E 024°37'251 9.0
2015-May-07 17:26N 35°50' E 020°04'71 9.9
2015-May-07 10:16N 35°34' E 018°39'2810.4
2015-May-07 07:33N 35°28' E 018°05'1110.7
2015-May-07 06:31N 35°25' E 017°52'1010.8
2015-May-07 05:33N 35°23' E 017°39'1110.7
2015-May-07 04:33N 35°21' E 017°26'2510.5
2015-May-07 02:12N 35°15' E 016°57'2810.6
2015-May-06 23:33N 35°09' E 016°23'12 9.9
2015-May-06 22:19N 35°06' E 016°09'7 9.5
2015-May-06 21:33N 35°04' E 016°00'19 9.8
2015-May-06 19:33N 34°60' E 015°37'1010.3
2015-May-06 18:33N 34°58' E 015°25'1010.5
2015-May-06 17:33N 34°56' E 015°12'1110.5
2015-May-06 16:33N 34°53' E 014°60'1010.5
2015-May-06 15:33N 34°51' E 014°47'1010.2
2015-May-06 14:33N 34°48' E 014°35'1010.0
2015-May-06 13:32N 34°46' E 014°23'1010.0
2015-May-06 12:33N 34°44' E 014°12'10 9.9
2015-May-06 11:33N 34°41' E 013°60'10 9.8
2015-May-06 10:33N 34°39' E 013°48'12 9.8
2015-May-06 09:23N 34°37' E 013°35'810.1
2015-May-06 08:34N 34°35' E 013°25'1010.0
2015-May-06 07:32N 34°33' E 013°13'3210.2
2015-May-06 04:22N 34°26' E 012°34'810.2
2015-May-06 03:32N 34°23' E 012°25'  

Dump ship's entire track history